createdAt,value
2023-04-02T00:02:47.622Z,70.55
2023-04-02T00:06:39.993Z,70.95
2023-04-02T00:10:32.462Z,70.42
2023-04-02T00:14:17.741Z,70.41
2023-04-02T00:18:01.721Z,70.62
2023-04-02T00:21:46.612Z,70.85
2023-04-02T00:25:32.304Z,70.73
2023-04-02T00:29:16.778Z,71.06
2023-04-02T00:32:59.491Z,71.49
2023-04-02T00:36:44.261Z,71.39
2023-04-02T00:40:29.085Z,71.56
2023-04-02T00:44:14.587Z,71.48
2023-04-02T00:47:58.617Z,71.24
2023-04-02T00:51:45.673Z,71.56
2023-04-02T00:55:33.925Z,71.33
2023-04-02T00:59:29.146Z,70.98
2023-04-02T01:03:35.199Z,70.80
2023-04-02T01:07:19.001Z,71.44
2023-04-02T01:11:06.027Z,71.88
2023-04-02T01:14:56.777Z,71.29
2023-04-02T01:18:50.310Z,71.39
2023-04-02T01:22:36.131Z,71.16
2023-04-02T01:26:27.585Z,71.69
2023-04-02T01:30:12.959Z,71.26
2023-04-02T01:33:58.628Z,70.62
2023-04-02T01:37:44.947Z,70.25
2023-04-02T01:41:32.301Z,71.56
2023-04-02T01:45:17.901Z,71.66
2023-04-02T01:49:02.558Z,71.60
2023-04-02T01:52:46.754Z,70.88
2023-04-02T01:56:30.478Z,71.85
2023-04-02T02:00:15.780Z,71.95
2023-04-02T02:04:00.708Z,72.34
2023-04-02T02:07:43.553Z,72.42
2023-04-02T02:11:29.954Z,71.87
2023-04-02T02:15:16.485Z,71.73
2023-04-02T02:19:02.047Z,71.29
2023-04-02T02:22:46.199Z,72.26
2023-04-02T02:26:29.696Z,71.34
2023-04-02T02:30:15.578Z,71.38
2023-04-02T02:34:01.744Z,70.69
2023-04-02T02:37:47.061Z,71.07
2023-04-02T02:41:34.907Z,71.28
2023-04-02T02:45:20.750Z,70.99
2023-04-02T02:49:05.729Z,71.37
2023-04-02T02:52:52.453Z,71.32
2023-04-02T02:56:36.840Z,71.46
2023-04-02T03:00:20.266Z,71.48
2023-04-02T03:04:04.677Z,71.80
2023-04-02T03:07:47.419Z,71.68
2023-04-02T03:11:34.890Z,71.93
2023-04-02T03:15:23.116Z,71.32
2023-04-02T03:19:12.073Z,71.82
2023-04-02T03:22:58.844Z,71.49
2023-04-02T03:26:44.113Z,71.41
2023-04-02T03:30:30.569Z,70.92
2023-04-02T03:34:18.558Z,71.12
2023-04-02T03:38:03.829Z,71.28
2023-04-02T03:41:49.385Z,71.12
2023-04-02T03:45:37.188Z,70.89
2023-04-02T03:49:27.673Z,70.96
2023-04-02T03:53:10.910Z,71.04
2023-04-02T03:56:54.280Z,71.18
2023-04-02T04:00:39.447Z,71.22
2023-04-02T04:04:24.431Z,71.41
2023-04-02T04:08:14.652Z,71.63
2023-04-02T04:12:09.464Z,71.59
2023-04-02T04:15:55.612Z,71.64
2023-04-02T04:19:45.355Z,71.20
2023-04-02T04:23:31.044Z,72.06
2023-04-02T04:27:20.496Z,71.81
2023-04-02T04:31:07.219Z,71.82
2023-04-02T04:34:53.573Z,72.18
2023-04-02T04:38:39.434Z,72.41
2023-04-02T04:42:24.240Z,72.06
2023-04-02T04:46:11.006Z,72.16
2023-04-02T04:49:57.572Z,72.40
2023-04-02T04:53:47.428Z,72.76
2023-04-02T04:57:33.147Z,72.66
2023-04-02T05:01:18.985Z,72.40
2023-04-02T05:05:03.567Z,72.07
2023-04-02T05:08:48.838Z,72.60
2023-04-02T05:12:35.807Z,73.54
2023-04-02T05:16:23.316Z,73.43
2023-04-02T05:20:16.348Z,73.27
2023-04-02T05:24:04.206Z,72.63
2023-04-02T05:27:49.548Z,72.67
2023-04-02T05:31:39.108Z,72.70
2023-04-02T05:35:29.949Z,73.46
2023-04-02T05:39:12.996Z,72.95
2023-04-02T05:42:55.879Z,73.26
2023-04-02T05:46:44.249Z,73.18
2023-04-02T05:50:31.604Z,72.47
2023-04-02T05:54:23.105Z,72.24
2023-04-02T05:58:33.998Z,72.78
2023-04-02T06:02:19.004Z,73.05
2023-04-02T06:06:07.791Z,72.36
2023-04-02T06:09:52.677Z,71.57
2023-04-02T06:13:35.810Z,72.61
2023-04-02T06:17:20.558Z,72.68
2023-04-02T06:21:06.088Z,73.13
2023-04-02T06:24:53.086Z,72.66
2023-04-02T06:28:41.144Z,72.08
2023-04-02T06:32:25.672Z,72.98
2023-04-02T06:36:12.458Z,72.09
2023-04-02T06:39:55.338Z,72.58
2023-04-02T06:43:40.654Z,72.61
2023-04-02T06:47:31.377Z,72.84
2023-04-02T06:51:18.845Z,72.57
2023-04-02T06:55:02.108Z,72.44
2023-04-02T06:58:44.804Z,73.36
2023-04-02T07:02:30.908Z,72.63
2023-04-02T07:06:17.939Z,72.36
2023-04-02T07:10:00.624Z,72.37
2023-04-02T07:13:43.651Z,72.83
2023-04-02T07:17:26.324Z,71.67
2023-04-02T07:21:09.211Z,72.26
2023-04-02T07:24:53.403Z,70.45
2023-04-02T07:28:36.121Z,71.72
2023-04-02T07:32:19.481Z,72.42
2023-04-02T07:36:02.242Z,72.15
2023-04-02T07:39:45.109Z,72.24
2023-04-02T07:43:29.085Z,72.02
2023-04-02T07:47:11.749Z,71.41
2023-04-02T07:50:54.482Z,71.03
2023-04-02T07:54:38.192Z,71.12
2023-04-02T07:58:20.847Z,69.96
2023-04-02T08:02:05.820Z,70.42
2023-04-02T08:05:53.322Z,70.81
2023-04-02T08:09:36.027Z,70.74
2023-04-02T08:13:19.556Z,70.27
2023-04-02T08:17:02.356Z,69.95
2023-04-02T08:20:46.475Z,68.85
2023-04-02T08:24:29.273Z,68.96
2023-04-02T08:28:12.430Z,68.86
2023-04-02T08:31:55.083Z,68.59
2023-04-02T08:35:38.080Z,68.32
2023-04-02T08:39:22.322Z,67.16
2023-04-02T08:43:16.335Z,67.50
2023-04-02T08:47:03.268Z,67.98
2023-04-02T08:50:46.575Z,67.81
2023-04-02T08:54:32.666Z,66.89
2023-04-02T08:58:24.700Z,66.76
2023-04-02T09:02:21.773Z,66.23
2023-04-02T09:06:04.998Z,67.02
2023-04-02T09:09:49.941Z,66.02
2023-04-02T09:13:37.379Z,66.58
2023-04-02T09:17:21.957Z,66.88
2023-04-02T09:21:19.931Z,66.14
2023-04-02T09:25:10.989Z,65.89
2023-04-02T09:28:55.880Z,66.07
2023-04-02T09:32:47.253Z,66.06
2023-04-02T09:36:35.291Z,65.69
2023-04-02T09:40:25.619Z,65.67
2023-04-02T09:44:21.111Z,66.16
2023-04-02T09:48:04.262Z,65.44
2023-04-02T09:51:46.994Z,63.96
2023-04-02T09:55:32.131Z,63.15
2023-04-02T09:59:16.261Z,63.87
2023-04-02T10:03:05.101Z,63.03
2023-04-02T10:06:57.892Z,64.09
2023-04-02T10:10:43.831Z,64.60
2023-04-02T10:14:29.841Z,65.21
2023-04-02T10:18:16.027Z,65.28
2023-04-02T10:21:59.433Z,64.58
2023-04-02T10:25:47.284Z,63.79
2023-04-02T10:29:47.117Z,64.45
2023-04-02T10:33:34.236Z,64.69
2023-04-02T10:38:01.423Z,63.66
2023-04-02T10:41:51.319Z,62.46
2023-04-02T10:45:39.792Z,59.95
2023-04-02T10:49:28.849Z,60.27
2023-04-02T10:53:14.905Z,60.52
2023-04-02T10:57:07.332Z,58.63
2023-04-02T11:00:52.151Z,58.95
2023-04-02T11:04:39.378Z,56.27
2023-04-02T11:08:24.488Z,57.29
2023-04-02T11:12:09.660Z,57.96
2023-04-02T11:15:53.360Z,58.34
2023-04-02T11:19:37.739Z,58.35
2023-04-02T11:23:21.456Z,59.01
2023-04-02T11:27:25.861Z,60.51
2023-04-02T11:31:08.571Z,61.93
2023-04-02T11:35:20.057Z,61.38
2023-04-02T11:39:11.025Z,59.56
2023-04-02T11:43:41.328Z,59.73
2023-04-02T11:47:26.706Z,59.92
2023-04-02T11:51:16.249Z,62.14
2023-04-02T11:55:05.211Z,62.54
2023-04-02T11:58:55.786Z,62.02
2023-04-02T12:02:54.023Z,62.31
2023-04-02T12:06:48.293Z,62.54
2023-04-02T12:10:34.366Z,61.92
2023-04-02T12:14:43.922Z,61.72
2023-04-02T12:18:27.983Z,61.92
2023-04-02T12:22:17.585Z,61.31
2023-04-02T12:26:01.316Z,60.10
2023-04-02T12:29:44.324Z,58.53
2023-04-02T12:33:33.767Z,59.09
2023-04-02T12:37:22.582Z,59.41
2023-04-02T12:41:07.601Z,59.61
2023-04-02T12:44:50.383Z,62.06
2023-04-02T12:48:34.794Z,59.43
2023-04-02T12:52:19.251Z,59.87
2023-04-02T12:56:02.835Z,61.26
2023-04-02T12:59:45.459Z,63.38
2023-04-02T13:03:29.168Z,66.48
2023-04-02T13:07:17.628Z,68.10
2023-04-02T13:11:01.568Z,68.97
2023-04-02T13:14:44.188Z,69.55
2023-04-02T13:18:26.847Z,71.04
2023-04-02T13:22:32.654Z,70.79
2023-04-02T13:26:20.178Z,71.54
2023-04-02T13:30:09.211Z,72.15
2023-04-02T13:33:51.853Z,72.88
2023-04-02T13:37:35.906Z,73.64
2023-04-02T13:41:22.376Z,74.61
2023-04-02T13:45:05.895Z,75.80
2023-04-02T13:48:48.718Z,75.68
2023-04-02T13:52:31.435Z,73.02
2023-04-02T13:56:15.420Z,71.66
2023-04-02T13:59:58.047Z,71.09
2023-04-02T14:03:40.780Z,71.91
2023-04-02T14:07:34.794Z,71.71
2023-04-02T14:11:29.026Z,72.60
2023-04-02T14:15:22.562Z,73.93
2023-04-02T14:19:13.850Z,75.86
2023-04-02T14:23:08.026Z,75.89
2023-04-02T14:27:04.338Z,78.68
2023-04-02T14:30:53.231Z,78.11
2023-04-02T14:34:42.600Z,78.35
2023-04-02T14:38:28.994Z,79.40
2023-04-02T14:42:17.261Z,80.74
2023-04-02T14:46:01.179Z,80.40
2023-04-02T14:49:44.375Z,78.99
2023-04-02T14:53:30.330Z,79.43
2023-04-02T14:57:21.368Z,81.42
2023-04-02T15:01:07.603Z,76.46
2023-04-02T15:04:55.398Z,77.95
2023-04-02T15:08:39.909Z,78.24
2023-04-02T15:12:26.665Z,80.11
2023-04-02T15:16:12.519Z,77.69
2023-04-02T15:20:00.288Z,75.63
2023-04-02T15:23:50.019Z,75.31
2023-04-02T15:27:45.334Z,76.18
2023-04-02T15:31:29.357Z,76.18
2023-04-02T15:35:21.416Z,77.35
2023-04-02T15:39:15.253Z,77.81
2023-04-02T15:43:06.311Z,78.43
2023-04-02T15:46:55.640Z,77.86
2023-04-02T15:50:45.661Z,80.10
2023-04-02T15:54:55.216Z,80.92
2023-04-02T15:58:52.434Z,82.05
2023-04-02T16:03:05.931Z,85.57
2023-04-02T16:07:01.789Z,81.38
2023-04-02T16:10:45.474Z,80.14
2023-04-02T16:14:32.045Z,77.48
2023-04-02T16:18:19.289Z,75.62
2023-04-02T16:22:05.414Z,76.08
2023-04-02T16:25:53.663Z,77.33
2023-04-02T16:29:55.132Z,77.55
2023-04-02T16:33:48.408Z,79.07
2023-04-02T16:37:38.268Z,77.76
2023-04-02T16:41:27.210Z,79.41
2023-04-02T16:45:26.717Z,81.12
2023-04-02T16:49:19.735Z,81.95
2023-04-02T16:53:11.645Z,81.59
2023-04-02T16:57:11.974Z,82.32
2023-04-02T17:00:58.605Z,80.98
2023-04-02T17:04:58.362Z,80.81
2023-04-02T17:08:44.292Z,79.40
2023-04-02T17:12:33.011Z,77.94
2023-04-02T17:16:21.721Z,79.39
2023-04-02T17:20:10.860Z,78.55
2023-04-02T17:23:56.723Z,77.88
2023-04-02T17:27:42.235Z,77.42
2023-04-02T17:31:28.148Z,77.67
2023-04-02T17:35:19.346Z,76.66
2023-04-02T17:39:09.430Z,76.27
2023-04-02T17:42:58.275Z,77.35
2023-04-02T17:46:47.257Z,78.90
2023-04-02T17:50:38.680Z,79.39
2023-04-02T17:54:31.152Z,78.16
2023-04-02T17:58:26.215Z,76.80
2023-04-02T18:02:23.576Z,76.04
2023-04-02T18:06:11.475Z,74.29
2023-04-02T18:10:02.332Z,74.64
2023-04-02T18:13:48.911Z,76.70
2023-04-02T18:17:38.890Z,71.76
2023-04-02T18:21:25.629Z,68.86
2023-04-02T18:25:29.020Z,70.05
2023-04-02T18:29:20.474Z,69.12
2023-04-02T18:33:21.510Z,71.07
2023-04-02T18:37:15.408Z,70.81
2023-04-02T18:41:03.862Z,71.57
2023-04-02T18:44:56.419Z,72.67
2023-04-02T18:48:44.475Z,73.70
2023-04-02T18:52:27.391Z,71.39
2023-04-02T18:56:13.988Z,69.99
2023-04-02T19:00:00.300Z,71.37
2023-04-02T19:03:46.620Z,70.51
2023-04-02T19:07:30.923Z,68.92
2023-04-02T19:11:15.441Z,68.92
2023-04-02T19:15:00.178Z,68.27
2023-04-02T19:18:51.825Z,68.53
2023-04-02T19:22:39.978Z,67.66
2023-04-02T19:26:28.016Z,66.99
2023-04-02T19:30:33.349Z,68.88
2023-04-02T19:34:21.600Z,69.18
2023-04-02T19:38:13.524Z,70.39
2023-04-02T19:42:02.514Z,68.73
2023-04-02T19:45:46.853Z,69.02
2023-04-02T19:49:34.724Z,69.32
2023-04-02T19:53:20.853Z,69.02
2023-04-02T19:57:05.245Z,68.16
2023-04-02T20:00:48.190Z,65.91
2023-04-02T20:04:32.325Z,65.79
2023-04-02T20:08:15.106Z,65.33
2023-04-02T20:11:57.828Z,66.34
2023-04-02T20:15:41.058Z,67.20
2023-04-02T20:19:23.961Z,68.08
2023-04-02T20:23:08.756Z,68.97
2023-04-02T20:26:51.638Z,68.34
2023-04-02T20:30:34.535Z,67.73
2023-04-02T20:34:17.798Z,66.77
2023-04-02T20:38:00.589Z,69.76
2023-04-02T20:41:44.698Z,68.25
2023-04-02T20:45:53.718Z,64.55
2023-04-02T20:49:41.183Z,63.57
2023-04-02T20:53:24.482Z,63.52
2023-04-02T20:57:08.966Z,63.33
2023-04-02T21:00:51.926Z,62.61
2023-04-02T21:04:34.943Z,62.69
2023-04-02T21:08:17.928Z,62.13
2023-04-02T21:12:00.622Z,63.30
2023-04-02T21:15:45.156Z,63.95
2023-04-02T21:19:28.165Z,63.42
2023-04-02T21:23:10.873Z,64.51
2023-04-02T21:26:53.514Z,64.85
2023-04-02T21:30:36.327Z,65.35
2023-04-02T21:34:21.092Z,65.77
2023-04-02T21:38:04.323Z,64.95
2023-04-02T21:41:50.052Z,65.29
2023-04-02T21:45:32.922Z,65.98
2023-04-02T21:49:17.996Z,65.33
2023-04-02T21:53:01.995Z,65.68
2023-04-02T21:56:46.526Z,66.96
2023-04-02T22:00:29.379Z,67.39
2023-04-02T22:04:19.673Z,68.78
2023-04-02T22:08:03.726Z,70.41
2023-04-02T22:11:48.073Z,71.27
2023-04-02T22:15:33.773Z,72.07
2023-04-02T22:19:17.701Z,73.23
2023-04-02T22:23:00.428Z,73.51
2023-04-02T22:26:44.573Z,73.95
2023-04-02T22:30:29.857Z,74.16
2023-04-02T22:34:12.706Z,75.03
2023-04-02T22:37:55.828Z,74.79
2023-04-02T22:41:38.771Z,74.63
2023-04-02T22:45:25.665Z,75.14
2023-04-02T22:49:08.518Z,75.92
2023-04-02T22:52:51.194Z,76.24
2023-04-02T22:56:35.338Z,76.15
2023-04-02T23:00:18.762Z,75.60
2023-04-02T23:04:04.826Z,76.07
2023-04-02T23:07:48.597Z,75.70
2023-04-02T23:11:31.319Z,76.79
2023-04-02T23:15:17.020Z,77.26
2023-04-02T23:18:59.704Z,76.29
2023-04-02T23:22:43.844Z,76.76
2023-04-02T23:26:29.170Z,76.57
2023-04-02T23:30:12.682Z,76.09
2023-04-02T23:33:55.851Z,74.89
2023-04-02T23:37:38.485Z,75.07
2023-04-02T23:41:23.721Z,75.00
2023-04-02T23:45:07.170Z,74.63
2023-04-02T23:48:50.582Z,73.90
2023-04-02T23:52:34.512Z,75.12
2023-04-02T23:56:17.183Z,75.12
